sensor_id;sensor_type;location;lat;lon;timestamp;pressure;altitude;pressure_sealevel;temperature;humidity
61906;BME280;47863;55.766;37.672;2023-04-02T00:01:35;99272.25;;;6.77;78.11
61906;BME280;47863;55.766;37.672;2023-04-02T00:04:10;99277.44;;;6.79;78.42
61906;BME280;47863;55.766;37.672;2023-04-02T00:06:38;99276.63;;;6.78;77.86
61906;BME280;47863;55.766;37.672;2023-04-02T00:11:43;99285.28;;;6.80;79.48
61906;BME280;47863;55.766;37.672;2023-04-02T00:14:22;99227.22;;;6.48;79.58
61906;BME280;47863;55.766;37.672;2023-04-02T00:16:50;99276.47;;;6.80;79.09
61906;BME280;47863;55.766;37.672;2023-04-02T00:19:24;99282.63;;;6.80;79.65
61906;BME280;47863;55.766;37.672;2023-04-02T00:21:53;99270.50;;;6.68;79.86
61906;BME280;47863;55.766;37.672;2023-04-02T00:24:20;99271.06;;;6.71;79.68
61906;BME280;47863;55.766;37.672;2023-04-02T00:26:51;99287.25;;;6.78;79.95
61906;BME280;47863;55.766;37.672;2023-04-02T00:29:18;99293.41;;;6.79;79.48
61906;BME280;47863;55.766;37.672;2023-04-02T00:31:46;99296.75;;;6.81;79.78
61906;BME280;47863;55.766;37.672;2023-04-02T00:36:45;99294.66;;;6.84;81.77
61906;BME280;47863;55.766;37.672;2023-04-02T00:39:25;99286.72;;;6.74;81.36
61906;BME280;47863;55.766;37.672;2023-04-02T00:41:56;99281.16;;;6.68;81.33
61906;BME280;47863;55.766;37.672;2023-04-02T00:44:36;99295.94;;;6.80;81.64
61906;BME280;47863;55.766;37.672;2023-04-02T00:47:10;99288.41;;;6.75;81.64
61906;BME280;47863;55.766;37.672;2023-04-02T00:49:40;99273.88;;;6.70;82.13
61906;BME280;47863;55.766;37.672;2023-04-02T00:52:12;99296.63;;;6.82;82.42
61906;BME280;47863;55.766;37.672;2023-04-02T00:54:47;99298.00;;;6.86;83.37
61906;BME280;47863;55.766;37.672;2023-04-02T00:57:18;99301.66;;;6.85;82.82
61906;BME280;47863;55.766;37.672;2023-04-02T01:00:13;99299.69;;;6.87;82.58
61906;BME280;47863;55.766;37.672;2023-04-02T01:02:40;99307.66;;;6.87;82.69
61906;BME280;47863;55.766;37.672;2023-04-02T01:08:02;99299.38;;;6.90;82.59
61906;BME280;47863;55.766;37.672;2023-04-02T01:18:34;99315.75;;;6.95;82.31
61906;BME280;47863;55.766;37.672;2023-04-02T01:23:43;99309.41;;;6.97;83.06
61906;BME280;47863;55.766;37.672;2023-04-02T01:26:39;99302.44;;;6.95;82.65
61906;BME280;47863;55.766;37.672;2023-04-02T01:29:18;99304.94;;;6.97;82.60
61906;BME280;47863;55.766;37.672;2023-04-02T01:31:45;99296.41;;;6.93;82.31
61906;BME280;47863;55.766;37.672;2023-04-02T01:34:14;99313.16;;;7.04;82.26
61906;BME280;47863;55.766;37.672;2023-04-02T01:37:11;99304.03;;;7.06;82.13
61906;BME280;47863;55.766;37.672;2023-04-02T01:42:23;99263.78;;;6.91;82.46
61906;BME280;47863;55.766;37.672;2023-04-02T01:45:00;99304.56;;;7.10;82.41
61906;BME280;47863;55.766;37.672;2023-04-02T01:47:27;99291.53;;;7.07;82.09
61906;BME280;47863;55.766;37.672;2023-04-02T01:50:17;99297.56;;;7.09;81.80
61906;BME280;47863;55.766;37.672;2023-04-02T01:52:54;99304.44;;;7.11;82.18
61906;BME280;47863;55.766;37.672;2023-04-02T01:55:32;99283.72;;;7.05;82.17
61906;BME280;47863;55.766;37.672;2023-04-02T01:57:59;99297.25;;;7.12;81.65
61906;BME280;47863;55.766;37.672;2023-04-02T02:00:26;99287.31;;;7.14;82.02
61906;BME280;47863;55.766;37.672;2023-04-02T02:02:54;99296.97;;;7.15;82.21
61906;BME280;47863;55.766;37.672;2023-04-02T02:05:22;99302.44;;;7.13;82.23
61906;BME280;47863;55.766;37.672;2023-04-02T02:07:49;99304.09;;;7.14;82.22
61906;BME280;47863;55.766;37.672;2023-04-02T02:10:25;99301.44;;;7.14;82.35
61906;BME280;47863;55.766;37.672;2023-04-02T02:12:51;99298.97;;;7.13;82.55
61906;BME280;47863;55.766;37.672;2023-04-02T02:15:19;99267.97;;;6.94;83.15
61906;BME280;47863;55.766;37.672;2023-04-02T02:17:46;99284.69;;;7.04;83.07
61906;BME280;47863;55.766;37.672;2023-04-02T02:20:12;99299.38;;;7.08;82.92
61906;BME280;47863;55.766;37.672;2023-04-02T02:22:42;99297.56;;;7.09;82.68
61906;BME280;47863;55.766;37.672;2023-04-02T02:25:14;99300.41;;;7.07;82.99
61906;BME280;47863;55.766;37.672;2023-04-02T02:27:49;99297.72;;;7.07;82.78
61906;BME280;47863;55.766;37.672;2023-04-02T02:30:26;99303.06;;;7.07;82.49
61906;BME280;47863;55.766;37.672;2023-04-02T02:35:37;99297.47;;;7.01;82.49
61906;BME280;47863;55.766;37.672;2023-04-02T02:46:27;99306.56;;;7.08;82.65
61906;BME280;47863;55.766;37.672;2023-04-02T02:48:54;99311.59;;;7.11;82.54
61906;BME280;47863;55.766;37.672;2023-04-02T02:51:28;99315.91;;;7.12;83.00
61906;BME280;47863;55.766;37.672;2023-04-02T02:54:03;99295.34;;;7.04;83.34
61906;BME280;47863;55.766;37.672;2023-04-02T02:56:31;99309.50;;;7.05;83.26
61906;BME280;47863;55.766;37.672;2023-04-02T02:58:59;99310.34;;;7.05;83.04
61906;BME280;47863;55.766;37.672;2023-04-02T03:01:28;99269.59;;;6.77;83.66
61906;BME280;47863;55.766;37.672;2023-04-02T03:03:54;99298.75;;;6.97;83.53
61906;BME280;47863;55.766;37.672;2023-04-02T03:06:20;99305.31;;;7.02;83.71
61906;BME280;47863;55.766;37.672;2023-04-02T03:11:46;99281.63;;;6.81;83.73
61906;BME280;47863;55.766;37.672;2023-04-02T03:14:37;99320.84;;;7.07;84.45
61906;BME280;47863;55.766;37.672;2023-04-02T03:17:17;99325.34;;;7.06;84.04
61906;BME280;47863;55.766;37.672;2023-04-02T03:20:05;99328.13;;;7.05;83.94
61906;BME280;47863;55.766;37.672;2023-04-02T03:22:39;99314.75;;;6.97;83.53
61906;BME280;47863;55.766;37.672;2023-04-02T03:25:32;99327.41;;;7.12;84.22
61906;BME280;47863;55.766;37.672;2023-04-02T03:28:04;99331.06;;;7.11;84.07
61906;BME280;47863;55.766;37.672;2023-04-02T03:30:36;99324.91;;;7.11;83.90
61906;BME280;47863;55.766;37.672;2023-04-02T03:33:26;99326.56;;;7.12;83.83
61906;BME280;47863;55.766;37.672;2023-04-02T03:36:12;99329.22;;;7.12;83.84
61906;BME280;47863;55.766;37.672;2023-04-02T03:38:43;99305.09;;;6.95;83.68
61906;BME280;47863;55.766;37.672;2023-04-02T03:41:18;99318.50;;;7.04;83.62
61906;BME280;47863;55.766;37.672;2023-04-02T03:43:51;99329.91;;;7.14;83.41
61906;BME280;47863;55.766;37.672;2023-04-02T03:46:38;99327.94;;;7.16;83.27
61906;BME280;47863;55.766;37.672;2023-04-02T03:49:18;99340.28;;;7.17;83.24
61906;BME280;47863;55.766;37.672;2023-04-02T03:54:49;99337.56;;;7.27;82.96
61906;BME280;47863;55.766;37.672;2023-04-02T03:57:39;99348.72;;;7.30;82.99
61906;BME280;47863;55.766;37.672;2023-04-02T04:02:50;99346.91;;;7.31;82.69
61906;BME280;47863;55.766;37.672;2023-04-02T04:05:38;99339.59;;;7.33;82.53
61906;BME280;47863;55.766;37.672;2023-04-02T04:08:15;99339.16;;;7.38;82.37
61906;BME280;47863;55.766;37.672;2023-04-02T04:10:42;99339.84;;;7.40;82.22
61906;BME280;47863;55.766;37.672;2023-04-02T04:13:12;99318.44;;;7.31;81.84
61906;BME280;47863;55.766;37.672;2023-04-02T04:16:05;99304.03;;;7.24;81.83
61906;BME280;47863;55.766;37.672;2023-04-02T04:18:46;99334.03;;;7.44;81.60
61906;BME280;47863;55.766;37.672;2023-04-02T04:21:24;99324.16;;;7.37;81.36
61906;BME280;47863;55.766;37.672;2023-04-02T04:24:03;99332.53;;;7.42;81.24
61906;BME280;47863;55.766;37.672;2023-04-02T04:26:47;99328.94;;;7.51;81.34
61906;BME280;47863;55.766;37.672;2023-04-02T04:34:44;99316.84;;;7.39;80.98
61906;BME280;47863;55.766;37.672;2023-04-02T04:37:30;99352.88;;;7.61;80.40
61906;BME280;47863;55.766;37.672;2023-04-02T04:42:41;99359.63;;;7.55;80.22
61906;BME280;47863;55.766;37.672;2023-04-02T04:47:37;99384.09;;;7.50;80.29
61906;BME280;47863;55.766;37.672;2023-04-02T04:50:11;99374.53;;;7.48;80.46
61906;BME280;47863;55.766;37.672;2023-04-02T04:52:40;99348.97;;;7.37;80.51
61906;BME280;47863;55.766;37.672;2023-04-02T04:55:36;99382.94;;;7.53;80.36
61906;BME280;47863;55.766;37.672;2023-04-02T04:58:34;99374.94;;;7.53;80.05
61906;BME280;47863;55.766;37.672;2023-04-02T05:01:06;99377.47;;;7.54;80.01
61906;BME280;47863;55.766;37.672;2023-04-02T05:08:51;99370.66;;;7.60;79.67
61906;BME280;47863;55.766;37.672;2023-04-02T05:11:29;99377.00;;;7.59;79.61
61906;BME280;47863;55.766;37.672;2023-04-02T05:14:14;99368.59;;;7.54;79.49
61906;BME280;47863;55.766;37.672;2023-04-02T05:16:59;99364.72;;;7.48;79.33
61906;BME280;47863;55.766;37.672;2023-04-02T05:22:13;99385.81;;;7.60;79.61
61906;BME280;47863;55.766;37.672;2023-04-02T05:32:58;99389.09;;;7.53;79.26
61906;BME280;47863;55.766;37.672;2023-04-02T05:35:32;99368.84;;;7.43;79.20
61906;BME280;47863;55.766;37.672;2023-04-02T05:38:00;99382.19;;;7.43;79.01
61906;BME280;47863;55.766;37.672;2023-04-02T05:40:34;99389.25;;;7.52;79.12
61906;BME280;47863;55.766;37.672;2023-04-02T05:43:07;99402.03;;;7.48;79.18
61906;BME280;47863;55.766;37.672;2023-04-02T05:45:37;99394.75;;;7.50;79.11
61906;BME280;47863;55.766;37.672;2023-04-02T05:48:32;99402.75;;;7.50;79.18
61906;BME280;47863;55.766;37.672;2023-04-02T05:51:00;99376.22;;;7.31;79.09
61906;BME280;47863;55.766;37.672;2023-04-02T05:53:39;99410.41;;;7.53;79.40
61906;BME280;47863;55.766;37.672;2023-04-02T05:56:16;99391.75;;;7.35;79.21
61906;BME280;47863;55.766;37.672;2023-04-02T05:59:05;99411.09;;;7.55;79.24
61906;BME280;47863;55.766;37.672;2023-04-02T06:01:47;99404.47;;;7.60;79.34
61906;BME280;47863;55.766;37.672;2023-04-02T06:04:28;99399.91;;;7.70;78.84
61906;BME280;47863;55.766;37.672;2023-04-02T06:07:04;99405.16;;;7.80;78.84
61906;BME280;47863;55.766;37.672;2023-04-02T06:09:55;99407.22;;;7.86;78.51
61906;BME280;47863;55.766;37.672;2023-04-02T06:12:37;99374.41;;;7.67;78.41
61906;BME280;47863;55.766;37.672;2023-04-02T06:15:07;99398.78;;;7.90;78.33
61906;BME280;47863;55.766;37.672;2023-04-02T06:20:31;99400.13;;;8.12;78.17
61906;BME280;47863;55.766;37.672;2023-04-02T06:23:09;99407.44;;;8.10;77.82
61906;BME280;47863;55.766;37.672;2023-04-02T06:26:24;99416.75;;;8.06;77.58
61906;BME280;47863;55.766;37.672;2023-04-02T06:33:52;99405.81;;;8.36;77.05
61906;BME280;47863;55.766;37.672;2023-04-02T06:36:19;99403.22;;;8.44;76.50
61906;BME280;47863;55.766;37.672;2023-04-02T06:38:46;99384.94;;;8.39;76.59
61906;BME280;47863;55.766;37.672;2023-04-02T06:41:22;99392.03;;;8.74;75.59
61906;BME280;47863;55.766;37.672;2023-04-02T06:43:58;99403.38;;;9.03;75.18
61906;BME280;47863;55.766;37.672;2023-04-02T06:49:01;99394.13;;;9.40;74.95
61906;BME280;47863;55.766;37.672;2023-04-02T06:51:30;99400.03;;;9.68;74.02
61906;BME280;47863;55.766;37.672;2023-04-02T06:53:58;99396.88;;;9.89;73.93
61906;BME280;47863;55.766;37.672;2023-04-02T06:59:08;99395.69;;;10.24;73.26
61906;BME280;47863;55.766;37.672;2023-04-02T07:04:18;99398.22;;;10.34;71.04
61906;BME280;47863;55.766;37.672;2023-04-02T07:06:45;99407.94;;;10.27;70.91
61906;BME280;47863;55.766;37.672;2023-04-02T07:09:11;99418.13;;;10.23;71.43
61906;BME280;47863;55.766;37.672;2023-04-02T07:11:36;99409.09;;;10.16;71.79
61906;BME280;47863;55.766;37.672;2023-04-02T07:14:02;99405.91;;;10.12;71.93
61906;BME280;47863;55.766;37.672;2023-04-02T07:16:30;99411.25;;;10.12;72.47
61906;BME280;47863;55.766;37.672;2023-04-02T07:18:57;99384.34;;;9.89;71.99
61906;BME280;47863;55.766;37.672;2023-04-02T07:21:27;99411.44;;;9.95;71.09
61906;BME280;47863;55.766;37.672;2023-04-02T07:23:53;99414.09;;;9.86;71.62
61906;BME280;47863;55.766;37.672;2023-04-02T07:26:22;99386.16;;;9.64;71.38
61906;BME280;47863;55.766;37.672;2023-04-02T07:28:48;99374.44;;;9.49;71.12
61906;BME280;47863;55.766;37.672;2023-04-02T07:31:20;99430.44;;;9.67;70.19
61906;BME280;47863;55.766;37.672;2023-04-02T07:33:46;99435.09;;;9.48;70.17
61906;BME280;47863;55.766;37.672;2023-04-02T07:36:17;99416.09;;;9.17;70.33
61906;BME280;47863;55.766;37.672;2023-04-02T07:38:44;99437.50;;;9.17;70.31
61906;BME280;47863;55.766;37.672;2023-04-02T07:41:10;99449.09;;;9.00;70.74
61906;BME280;47863;55.766;37.672;2023-04-02T07:43:36;99440.66;;;8.86;71.23
61906;BME280;47863;55.766;37.672;2023-04-02T07:46:03;99435.50;;;8.85;71.58
61906;BME280;47863;55.766;37.672;2023-04-02T07:48:29;99417.28;;;8.80;71.63
61906;BME280;47863;55.766;37.672;2023-04-02T07:50:55;99440.66;;;8.86;71.30
61906;BME280;47863;55.766;37.672;2023-04-02T07:53:29;99437.81;;;8.80;71.49
61906;BME280;47863;55.766;37.672;2023-04-02T07:55:58;99418.53;;;8.68;71.67
61906;BME280;47863;55.766;37.672;2023-04-02T07:58:25;99430.84;;;8.87;70.96
61906;BME280;47863;55.766;37.672;2023-04-02T08:00:50;99435.53;;;8.93;71.02
61906;BME280;47863;55.766;37.672;2023-04-02T08:03:16;99447.59;;;8.97;70.88
61906;BME280;47863;55.766;37.672;2023-04-02T08:05:41;99435.03;;;8.89;70.78
61906;BME280;47863;55.766;37.672;2023-04-02T08:08:07;99426.44;;;8.78;70.80
61906;BME280;47863;55.766;37.672;2023-04-02T08:10:33;99457.06;;;8.91;70.61
61906;BME280;47863;55.766;37.672;2023-04-02T08:12:59;99436.28;;;8.77;70.94
61906;BME280;47863;55.766;37.672;2023-04-02T08:15:24;99453.34;;;8.84;70.89
61906;BME280;47863;55.766;37.672;2023-04-02T08:17:50;99450.19;;;8.81;71.24
61906;BME280;47863;55.766;37.672;2023-04-02T08:20:18;99448.63;;;8.78;71.39
61906;BME280;47863;55.766;37.672;2023-04-02T08:22:45;99450.47;;;8.78;71.51
61906;BME280;47863;55.766;37.672;2023-04-02T08:25:11;99445.78;;;8.71;71.59
61906;BME280;47863;55.766;37.672;2023-04-02T08:27:37;99455.78;;;8.69;71.90
61906;BME280;47863;55.766;37.672;2023-04-02T08:30:04;99468.75;;;8.64;72.15
61906;BME280;47863;55.766;37.672;2023-04-02T08:32:31;99458.53;;;8.60;72.22
61906;BME280;47863;55.766;37.672;2023-04-02T08:34:56;99440.44;;;8.45;72.14
61906;BME280;47863;55.766;37.672;2023-04-02T08:37:22;99455.81;;;8.51;72.19
61906;BME280;47863;55.766;37.672;2023-04-02T08:39:47;99453.16;;;8.51;72.36
61906;BME280;47863;55.766;37.672;2023-04-02T08:42:45;99458.44;;;8.43;72.51
61906;BME280;47863;55.766;37.672;2023-04-02T08:47:49;99430.94;;;8.33;72.77
61906;BME280;47863;55.766;37.672;2023-04-02T08:50:27;99465.03;;;8.57;72.74
61906;BME280;47863;55.766;37.672;2023-04-02T08:52:55;99456.03;;;8.58;72.98
61906;BME280;47863;55.766;37.672;2023-04-02T09:00:41;99459.22;;;8.62;73.00
61906;BME280;47863;55.766;37.672;2023-04-02T09:03:27;99452.09;;;8.70;72.70
61906;BME280;47863;55.766;37.672;2023-04-02T09:05:53;99433.88;;;8.66;72.69
61906;BME280;47863;55.766;37.672;2023-04-02T09:08:22;99458.69;;;8.84;72.46
61906;BME280;47863;55.766;37.672;2023-04-02T09:11:21;99467.22;;;8.88;72.46
61906;BME280;47863;55.766;37.672;2023-04-02T09:13:45;99460.91;;;8.89;72.43
61906;BME280;47863;55.766;37.672;2023-04-02T09:16:14;99456.25;;;8.91;72.46
61906;BME280;47863;55.766;37.672;2023-04-02T09:18:42;99458.56;;;8.94;72.38
61906;BME280;47863;55.766;37.672;2023-04-02T09:23:42;99451.13;;;9.06;72.27
61906;BME280;47863;55.766;37.672;2023-04-02T09:26:26;99456.81;;;9.03;72.41
61906;BME280;47863;55.766;37.672;2023-04-02T09:28:58;99453.63;;;9.07;72.05
61906;BME280;47863;55.766;37.672;2023-04-02T09:31:35;99457.25;;;8.98;72.16
61906;BME280;47863;55.766;37.672;2023-04-02T09:34:29;99441.34;;;8.88;72.43
61906;BME280;47863;55.766;37.672;2023-04-02T09:36:56;99442.25;;;8.97;72.41
61906;BME280;47863;55.766;37.672;2023-04-02T09:39:23;99458.31;;;9.05;72.65
61906;BME280;47863;55.766;37.672;2023-04-02T09:41:51;99467.38;;;9.12;72.55
61906;BME280;47863;55.766;37.672;2023-04-02T09:44:25;99475.88;;;9.16;72.60
61906;BME280;47863;55.766;37.672;2023-04-02T09:46:55;99468.19;;;9.13;72.26
61906;BME280;47863;55.766;37.672;2023-04-02T09:49:29;99469.16;;;9.04;72.42
61906;BME280;47863;55.766;37.672;2023-04-02T09:52:27;99473.81;;;9.02;72.82
61906;BME280;47863;55.766;37.672;2023-04-02T09:55:22;99470.16;;;9.03;72.74
61906;BME280;47863;55.766;37.672;2023-04-02T09:58:14;99459.81;;;9.08;72.85
61906;BME280;47863;55.766;37.672;2023-04-02T10:00:51;99474.34;;;9.05;72.93
61906;BME280;47863;55.766;37.672;2023-04-02T10:06:08;99464.44;;;8.98;72.99
61906;BME280;47863;55.766;37.672;2023-04-02T10:08:35;99471.66;;;9.05;72.64
61906;BME280;47863;55.766;37.672;2023-04-02T10:11:05;99470.84;;;9.05;72.93
61906;BME280;47863;55.766;37.672;2023-04-02T10:21:24;99467.06;;;9.24;72.70
61906;BME280;47863;55.766;37.672;2023-04-02T10:23:49;99477.78;;;9.32;72.45
61906;BME280;47863;55.766;37.672;2023-04-02T10:31:20;99468.41;;;9.28;72.30
61906;BME280;47863;55.766;37.672;2023-04-02T10:33:52;99464.97;;;9.44;72.20
61906;BME280;47863;55.766;37.672;2023-04-02T10:36:52;99473.06;;;9.60;71.61
61906;BME280;47863;55.766;37.672;2023-04-02T10:39:36;99446.31;;;9.52;71.83
61906;BME280;47863;55.766;37.672;2023-04-02T10:42:35;99465.94;;;9.85;71.66
61906;BME280;47863;55.766;37.672;2023-04-02T10:51:00;99455.41;;;10.82;69.98
61906;BME280;47863;55.766;37.672;2023-04-02T10:53:32;99464.06;;;11.01;69.05
61906;BME280;47863;55.766;37.672;2023-04-02T10:56:02;99443.88;;;11.21;68.66
61906;BME280;47863;55.766;37.672;2023-04-02T10:58:32;99448.66;;;11.42;68.09
61906;BME280;47863;55.766;37.672;2023-04-02T11:01:06;99450.91;;;11.62;67.69
61906;BME280;47863;55.766;37.672;2023-04-02T11:03:39;99423.81;;;11.80;66.54
61906;BME280;47863;55.766;37.672;2023-04-02T11:06:17;99454.06;;;12.43;65.17
61906;BME280;47863;55.766;37.672;2023-04-02T11:08:47;99453.38;;;12.79;64.88
61906;BME280;47863;55.766;37.672;2023-04-02T11:11:17;99444.69;;;13.21;64.39
61906;BME280;47863;55.766;37.672;2023-04-02T11:16:19;99445.03;;;13.48;62.02
61906;BME280;47863;55.766;37.672;2023-04-02T11:24:30;99447.63;;;13.93;60.07
61906;BME280;47863;55.766;37.672;2023-04-02T11:29:39;99438.56;;;13.79;59.64
61906;BME280;47863;55.766;37.672;2023-04-02T11:42:48;99450.22;;;12.60;60.98
61906;BME280;47863;55.766;37.672;2023-04-02T11:50:35;99451.41;;;11.88;62.96
61906;BME280;47863;55.766;37.672;2023-04-02T11:55:43;99445.53;;;11.30;63.99
61906;BME280;47863;55.766;37.672;2023-04-02T12:09:23;99453.31;;;11.09;65.79
61906;BME280;47863;55.766;37.672;2023-04-02T12:11:51;99461.19;;;11.10;65.71
61906;BME280;47863;55.766;37.672;2023-04-02T12:14:50;99454.63;;;11.13;65.73
61906;BME280;47863;55.766;37.672;2023-04-02T12:17:23;99446.09;;;11.18;65.65
61906;BME280;47863;55.766;37.672;2023-04-02T12:19:52;99456.81;;;11.09;65.89
61906;BME280;47863;55.766;37.672;2023-04-02T12:22:24;99456.34;;;10.98;65.91
61906;BME280;47863;55.766;37.672;2023-04-02T12:24:53;99460.38;;;11.02;66.17
61906;BME280;47863;55.766;37.672;2023-04-02T12:27:23;99439.78;;;11.02;66.50
61906;BME280;47863;55.766;37.672;2023-04-02T12:30:10;99442.72;;;11.24;66.13
61906;BME280;47863;55.766;37.672;2023-04-02T12:32:37;99427.25;;;11.34;65.82
61906;BME280;47863;55.766;37.672;2023-04-02T12:35:03;99434.34;;;11.58;65.57
61906;BME280;47863;55.766;37.672;2023-04-02T12:37:30;99454.25;;;11.95;65.17
61906;BME280;47863;55.766;37.672;2023-04-02T12:39:59;99444.47;;;12.02;64.35
61906;BME280;47863;55.766;37.672;2023-04-02T12:42:34;99423.66;;;12.04;64.41
61906;BME280;47863;55.766;37.672;2023-04-02T12:45:02;99448.63;;;12.28;64.05
61906;BME280;47863;55.766;37.672;2023-04-02T12:47:28;99455.88;;;12.27;63.85
61906;BME280;47863;55.766;37.672;2023-04-02T12:49:56;99426.63;;;12.09;63.85
61906;BME280;47863;55.766;37.672;2023-04-02T12:52:25;99455.59;;;12.22;63.65
61906;BME280;47863;55.766;37.672;2023-04-02T12:54:58;99446.91;;;12.12;64.20
61906;BME280;47863;55.766;37.672;2023-04-02T12:57:31;99458.03;;;12.09;64.55
61906;BME280;47863;55.766;37.672;2023-04-02T13:02:51;99451.16;;;12.06;65.02
61906;BME280;47863;55.766;37.672;2023-04-02T13:05:48;99449.44;;;12.14;65.13
61906;BME280;47863;55.766;37.672;2023-04-02T13:08:22;99451.47;;;12.12;65.09
61906;BME280;47863;55.766;37.672;2023-04-02T13:11:07;99452.53;;;12.02;64.07
61906;BME280;47863;55.766;37.672;2023-04-02T13:13:37;99436.88;;;11.83;64.10
61906;BME280;47863;55.766;37.672;2023-04-02T13:18:29;99461.06;;;11.75;63.87
61906;BME280;47863;55.766;37.672;2023-04-02T13:21:01;99456.28;;;11.62;64.35
61906;BME280;47863;55.766;37.672;2023-04-02T13:23:31;99458.16;;;11.53;64.63
61906;BME280;47863;55.766;37.672;2023-04-02T13:26:08;99459.06;;;11.45;64.82
61906;BME280;47863;55.766;37.672;2023-04-02T13:28:35;99456.59;;;11.36;64.58
61906;BME280;47863;55.766;37.672;2023-04-02T13:31:01;99459.63;;;11.24;64.44
61906;BME280;47863;55.766;37.672;2023-04-02T13:33:26;99462.00;;;11.19;64.90
61906;BME280;47863;55.766;37.672;2023-04-02T13:35:52;99451.34;;;11.03;65.27
61906;BME280;47863;55.766;37.672;2023-04-02T13:38:18;99470.56;;;11.15;65.56
61906;BME280;47863;55.766;37.672;2023-04-02T13:40:43;99462.69;;;11.13;65.69
61906;BME280;47863;55.766;37.672;2023-04-02T13:43:16;99464.88;;;11.09;65.84
61906;BME280;47863;55.766;37.672;2023-04-02T13:45:45;99446.81;;;10.95;65.70
61906;BME280;47863;55.766;37.672;2023-04-02T13:48:14;99463.75;;;11.04;65.97
61906;BME280;47863;55.766;37.672;2023-04-02T13:50:42;99461.06;;;11.04;66.18
61906;BME280;47863;55.766;37.672;2023-04-02T13:53:23;99456.69;;;11.03;65.83
61906;BME280;47863;55.766;37.672;2023-04-02T13:55:52;99460.53;;;11.08;66.40
61906;BME280;47863;55.766;37.672;2023-04-02T13:58:18;99440.78;;;11.01;66.23
61906;BME280;47863;55.766;37.672;2023-04-02T14:00:44;99467.88;;;11.15;66.33
61906;BME280;47863;55.766;37.672;2023-04-02T14:03:14;99457.84;;;11.08;66.26
61906;BME280;47863;55.766;37.672;2023-04-02T14:14:14;99467.75;;;11.08;66.75
61906;BME280;47863;55.766;37.672;2023-04-02T14:17:13;99453.88;;;10.96;66.67
61906;BME280;47863;55.766;37.672;2023-04-02T14:22:25;99469.75;;;10.98;66.56
61906;BME280;47863;55.766;37.672;2023-04-02T14:25:15;99467.28;;;10.96;66.58
61906;BME280;47863;55.766;37.672;2023-04-02T14:31:23;99451.56;;;10.85;66.61
61906;BME280;47863;55.766;37.672;2023-04-02T14:34:12;99472.13;;;10.93;66.56
61906;BME280;47863;55.766;37.672;2023-04-02T14:44:24;99468.44;;;10.85;66.19
61906;BME280;47863;55.766;37.672;2023-04-02T14:46:59;99473.81;;;10.85;66.12
61906;BME280;47863;55.766;37.672;2023-04-02T14:49:37;99468.44;;;10.85;66.17
61906;BME280;47863;55.766;37.672;2023-04-02T14:52:16;99464.94;;;10.85;66.05
61906;BME280;47863;55.766;37.672;2023-04-02T14:55:02;99458.91;;;10.83;66.00
61906;BME280;47863;55.766;37.672;2023-04-02T14:57:37;99461.59;;;10.83;66.24
61906;BME280;47863;55.766;37.672;2023-04-02T15:05:42;99452.38;;;10.85;65.93
61906;BME280;47863;55.766;37.672;2023-04-02T15:08:38;99456.91;;;10.85;65.99
61906;BME280;47863;55.766;37.672;2023-04-02T15:13:42;99461.25;;;10.86;66.17
61906;BME280;47863;55.766;37.672;2023-04-02T15:16:19;99455.22;;;10.84;66.10
61906;BME280;47863;55.766;37.672;2023-04-02T15:18:49;99437.69;;;10.73;66.21
61906;BME280;47863;55.766;37.672;2023-04-02T15:26:40;99454.56;;;10.82;66.27
61906;BME280;47863;55.766;37.672;2023-04-02T15:32:01;99431.34;;;10.58;66.62
61906;BME280;47863;55.766;37.672;2023-04-02T15:34:44;99429.19;;;10.53;66.72
61906;BME280;47863;55.766;37.672;2023-04-02T15:37:27;99443.53;;;10.60;66.43
61906;BME280;47863;55.766;37.672;2023-04-02T15:40:18;99462.47;;;10.67;66.40
61906;BME280;47863;55.766;37.672;2023-04-02T15:45:39;99456.63;;;10.55;66.40
61906;BME280;47863;55.766;37.672;2023-04-02T15:48:30;99462.50;;;10.59;66.23
61906;BME280;47863;55.766;37.672;2023-04-02T15:54:35;99468.84;;;10.58;66.45
61906;BME280;47863;55.766;37.672;2023-04-02T16:00:18;99462.00;;;10.47;66.67
61906;BME280;47863;55.766;37.672;2023-04-02T16:05:50;99479.56;;;10.49;66.40
61906;BME280;47863;55.766;37.672;2023-04-02T16:11:14;99481.06;;;10.44;66.63
61906;BME280;47863;55.766;37.672;2023-04-02T16:13:41;99478.53;;;10.42;66.78
61906;BME280;47863;55.766;37.672;2023-04-02T16:16:20;99473.53;;;10.39;66.63
61906;BME280;47863;55.766;37.672;2023-04-02T16:19:11;99442.69;;;10.19;66.79
61906;BME280;47863;55.766;37.672;2023-04-02T16:21:57;99491.09;;;10.42;66.71
61906;BME280;47863;55.766;37.672;2023-04-02T16:24:25;99492.78;;;10.43;66.65
61906;BME280;47863;55.766;37.672;2023-04-02T16:32:38;99500.31;;;10.39;66.72
61906;BME280;47863;55.766;37.672;2023-04-02T16:35:22;99511.69;;;10.41;66.45
61906;BME280;47863;55.766;37.672;2023-04-02T16:38:00;99440.19;;;9.92;66.59
61906;BME280;47863;55.766;37.672;2023-04-02T17:00:47;99529.38;;;10.09;68.17
61906;BME280;47863;55.766;37.672;2023-04-02T17:03:34;99529.53;;;10.08;68.06
61906;BME280;47863;55.766;37.672;2023-04-02T17:08:46;99518.97;;;9.98;68.13
61906;BME280;47863;55.766;37.672;2023-04-02T17:11:39;99535.88;;;10.07;68.17
61906;BME280;47863;55.766;37.672;2023-04-02T17:16:51;99537.72;;;10.06;68.29
61906;BME280;47863;55.766;37.672;2023-04-02T17:19:19;99537.03;;;10.04;68.39
61906;BME280;47863;55.766;37.672;2023-04-02T17:21:48;99530.03;;;10.03;68.28
61906;BME280;47863;55.766;37.672;2023-04-02T17:24:25;99543.41;;;10.03;68.30
61906;BME280;47863;55.766;37.672;2023-04-02T17:27:37;99535.38;;;10.03;68.31
61906;BME280;47863;55.766;37.672;2023-04-02T17:30:31;99537.38;;;10.01;68.27
61906;BME280;47863;55.766;37.672;2023-04-02T17:32:58;99483.41;;;9.63;68.54
61906;BME280;47863;55.766;37.672;2023-04-02T17:35:36;99545.72;;;9.98;68.50
61906;BME280;47863;55.766;37.672;2023-04-02T17:48:44;99543.84;;;9.90;68.69
61906;BME280;47863;55.766;37.672;2023-04-02T17:53:44;99548.69;;;9.87;68.87